createdAt,value
2023-04-02T07:56:01.419Z,424.7500
2023-04-02T07:57:03.368Z,439.7692
2023-04-02T07:58:05.164Z,459.3846
2023-04-02T07:59:07.067Z,467.5385
2023-04-02T08:00:58.267Z,506.4167
2023-04-02T08:07:21.010Z,506.8462
2023-04-02T08:08:22.905Z,697.3077
2023-04-02T08:09:24.810Z,608.2308
2023-04-02T08:10:26.718Z,556.6154
2023-04-02T08:11:29.758Z,544.2308
2023-04-02T08:12:30.543Z,540.4615
2023-04-02T08:13:32.456Z,586.9231
2023-04-02T08:14:34.368Z,656.3846
2023-04-02T08:15:36.620Z,701.1539
2023-04-02T08:16:38.225Z,761.4615
2023-04-02T08:17:40.081Z,787.8461
2023-04-02T08:18:42.071Z,793.2308
2023-04-02T08:19:54.218Z,789.5385
2023-04-02T08:20:45.816Z,785.6154
2023-04-02T08:21:47.739Z,766.6923
2023-04-02T08:22:49.660Z,765.2308
2023-04-02T08:23:51.538Z,762.4615
2023-04-02T08:24:53.469Z,710.1539
2023-04-02T08:25:55.352Z,744.1539
2023-04-02T08:26:57.273Z,680.9231
2023-04-02T08:27:59.174Z,672.3077
2023-04-02T08:29:01.110Z,689.7692
2023-04-02T08:30:02.994Z,713.4615
2023-04-02T08:31:05.054Z,710.1539
2023-04-02T08:32:06.794Z,680.4615
2023-04-02T08:33:08.778Z,719.0769
2023-04-02T08:34:10.633Z,753.5385
2023-04-02T08:35:13.685Z,781.8461
2023-04-02T08:36:14.488Z,806.6154
2023-04-02T08:37:16.359Z,802.3077
2023-04-02T08:38:18.253Z,984.4615
2023-04-02T08:39:20.187Z,1054.3077
2023-04-02T08:40:22.085Z,999.6154
2023-04-02T08:41:24.008Z,692.7692
2023-04-02T08:42:25.930Z,422.3077
2023-04-02T08:43:27.882Z,400.0000
2023-04-02T08:44:29.707Z,400.0000
2023-04-02T08:45:31.647Z,400.0000
2023-04-02T08:46:33.539Z,400.0000
2023-04-02T08:47:35.472Z,400.0000
2023-04-02T08:48:37.326Z,400.0000
2023-04-02T08:49:39.329Z,400.0000
2023-04-02T08:50:41.145Z,400.0000
2023-04-02T08:51:43.101Z,400.0000
2023-04-02T08:52:44.953Z,400.0000
2023-04-02T08:53:46.879Z,400.0000
2023-04-02T08:54:48.759Z,400.0000
2023-04-02T08:55:50.682Z,400.0000
2023-04-02T08:56:52.621Z,1189.6923
2023-04-02T08:57:54.507Z,547.6154
2023-04-02T08:58:56.440Z,414.0769
2023-04-02T08:59:58.337Z,400.0000
2023-04-02T09:01:00.225Z,400.0000
2023-04-02T09:02:02.268Z,400.0000
2023-04-02T09:03:04.061Z,400.0000
2023-04-02T09:04:05.953Z,400.0000
2023-04-02T09:05:08.020Z,400.0000
2023-04-02T09:06:10.781Z,400.0000
2023-04-02T09:07:11.670Z,400.0000
2023-04-02T09:08:13.594Z,400.0000
2023-04-02T09:09:15.468Z,400.0000
2023-04-02T09:10:17.432Z,400.0000
2023-04-02T09:11:19.312Z,400.0000
2023-04-02T09:12:21.215Z,400.0000
2023-04-02T09:13:23.102Z,400.0000
2023-04-02T09:14:25.021Z,400.0000
2023-04-02T09:15:26.918Z,400.0000
2023-04-02T09:16:28.938Z,400.0000
2023-04-02T09:17:36.913Z,400.0000
2023-04-02T09:18:32.665Z,400.0000
2023-04-02T09:19:34.545Z,400.0000
2023-04-02T09:20:36.473Z,400.0000
2023-04-02T09:21:38.379Z,400.0000
2023-04-02T09:22:40.284Z,400.0000
2023-04-02T09:23:42.168Z,400.0000
2023-04-02T09:24:44.106Z,400.0000
2023-04-02T09:25:54.125Z,400.0000
2023-04-02T09:26:47.915Z,400.0000
2023-04-02T09:27:49.799Z,400.0000
2023-04-02T09:28:51.735Z,400.3846
2023-04-02T09:29:53.625Z,400.0000
2023-04-02T09:30:55.552Z,400.0769
2023-04-02T09:31:57.480Z,401.1538
2023-04-02T09:32:59.398Z,403.9231
2023-04-02T09:34:01.260Z,403.4615
2023-04-02T09:35:07.465Z,402.9231
2023-04-02T09:36:05.098Z,401.6923
2023-04-02T09:37:07.018Z,405.3077
2023-04-02T09:38:08.879Z,404.2308
2023-04-02T09:39:10.815Z,417.7692
2023-04-02T09:40:12.704Z,411.9231
2023-04-02T09:41:14.643Z,412.5385
2023-04-02T09:42:16.554Z,412.0000
2023-04-02T09:43:18.954Z,417.2308
2023-04-02T09:44:20.336Z,416.5385
2023-04-02T09:45:22.306Z,427.6154
2023-04-02T09:46:24.270Z,423.7692
2023-04-02T09:47:26.130Z,422.4615
2023-04-02T09:48:27.977Z,426.3077
2023-04-02T09:49:29.930Z,429.1538
2023-04-02T09:50:31.808Z,428.0000
2023-04-02T09:51:33.745Z,430.3077
2023-04-02T09:52:35.616Z,434.6923
2023-04-02T09:53:37.552Z,432.4615
2023-04-02T09:54:39.434Z,427.1538
2023-04-02T09:55:41.356Z,436.1538
2023-04-02T09:56:43.274Z,429.5385
2023-04-02T09:57:45.185Z,428.7692
2023-04-02T09:58:47.080Z,441.2308
2023-04-02T09:59:49.017Z,431.6923
2023-04-02T10:00:50.914Z,439.1538
2023-04-02T10:01:52.835Z,443.0000
2023-04-02T10:02:54.754Z,441.6154
2023-04-02T10:03:56.720Z,434.5385
2023-04-02T10:04:58.521Z,441.5385
2023-04-02T10:06:00.489Z,447.0769
2023-04-02T10:07:02.358Z,444.6923
2023-04-02T10:08:04.280Z,448.2308
2023-04-02T10:09:06.158Z,449.5385
2023-04-02T10:10:08.076Z,447.6923
2023-04-02T10:11:10.002Z,451.5385
2023-04-02T10:12:11.891Z,456.5385
2023-04-02T10:13:13.810Z,456.3846
2023-04-02T10:14:15.749Z,454.3077
2023-04-02T10:15:17.617Z,456.0000
2023-04-02T10:16:19.637Z,454.1538
2023-04-02T10:17:22.484Z,458.2308
2023-04-02T10:18:23.368Z,460.2308
2023-04-02T10:19:25.261Z,460.3846
2023-04-02T10:20:27.201Z,458.0000
2023-04-02T10:21:29.067Z,465.1538
2023-04-02T10:22:30.992Z,467.7692
2023-04-02T10:23:32.880Z,469.2308
2023-04-02T10:24:34.812Z,469.4615
2023-04-02T10:25:36.903Z,466.9231
2023-04-02T10:26:38.636Z,467.9231
2023-04-02T10:27:40.534Z,467.3077
2023-04-02T10:28:42.451Z,465.2308
2023-04-02T10:29:44.339Z,472.6923
2023-04-02T10:30:46.372Z,470.8462
2023-04-02T10:31:48.150Z,474.0000
2023-04-02T10:32:50.124Z,467.5385
2023-04-02T10:33:51.973Z,465.0769
2023-04-02T10:34:53.933Z,475.2308
2023-04-02T10:35:55.812Z,471.5385
2023-04-02T10:36:57.741Z,478.6923
2023-04-02T10:37:59.608Z,474.7692
2023-04-02T10:39:01.539Z,480.3077
2023-04-02T10:40:03.428Z,484.8462
2023-04-02T10:41:05.352Z,484.4615
2023-04-02T10:42:07.241Z,490.6154
2023-04-02T10:43:09.171Z,487.9231
2023-04-02T10:44:19.603Z,482.8462
2023-04-02T10:45:12.984Z,481.6923
2023-04-02T10:46:14.906Z,481.6154
2023-04-02T10:47:16.826Z,488.3077
2023-04-02T10:48:18.694Z,489.6154
2023-04-02T10:49:20.676Z,483.7692
2023-04-02T10:50:22.524Z,486.0000
2023-04-02T10:51:24.452Z,491.3077
2023-04-02T10:52:26.417Z,499.3077
2023-04-02T10:53:28.274Z,492.9231
2023-04-02T10:54:30.165Z,497.4615
2023-04-02T10:55:32.086Z,493.0769
2023-04-02T10:56:44.042Z,498.3077
2023-04-02T10:57:36.027Z,490.2308
2023-04-02T10:58:37.784Z,491.4615
2023-04-02T10:59:39.712Z,487.3077
2023-04-02T11:00:41.601Z,489.9231
2023-04-02T11:01:43.591Z,491.8462
2023-04-02T11:02:45.500Z,495.7692
2023-04-02T11:03:47.455Z,494.6154
2023-04-02T11:04:49.251Z,501.3077
2023-04-02T11:05:51.182Z,503.3846
2023-04-02T11:06:58.096Z,493.7692
2023-04-02T11:07:54.999Z,492.6154
2023-04-02T11:08:56.885Z,493.0769
2023-04-02T11:09:58.799Z,500.5385
2023-04-02T11:11:01.822Z,500.6923
2023-04-02T11:12:02.652Z,498.1538
2023-04-02T11:13:04.537Z,492.9231
2023-04-02T11:14:06.749Z,496.2308
2023-04-02T11:15:08.341Z,496.7692
2023-04-02T11:16:10.275Z,501.2308
2023-04-02T11:17:12.141Z,495.9231
2023-04-02T11:18:14.094Z,500.4615
2023-04-02T11:19:15.996Z,497.9231
2023-04-02T11:20:17.909Z,501.3846
2023-04-02T11:21:19.807Z,499.9231
2023-04-02T11:22:21.713Z,500.6154
2023-04-02T11:23:23.668Z,498.0000
2023-04-02T11:24:25.550Z,495.7692
2023-04-02T11:25:27.425Z,495.6923
2023-04-02T11:26:29.371Z,492.1538
2023-04-02T11:27:31.265Z,501.8462
2023-04-02T11:28:33.169Z,499.5385
2023-04-02T11:29:35.383Z,494.6923
2023-04-02T11:30:36.999Z,494.0000
2023-04-02T11:31:38.960Z,496.6154
2023-04-02T11:32:40.818Z,495.6923
2023-04-02T11:33:45.370Z,493.0769
2023-04-02T11:34:44.623Z,487.9231
2023-04-02T11:35:46.603Z,493.3846
2023-04-02T11:36:48.437Z,490.3077
2023-04-02T11:37:52.340Z,495.8462
2023-04-02T11:38:53.342Z,491.1538
2023-04-02T11:39:54.140Z,492.4615
2023-04-02T11:40:56.072Z,494.7692
2023-04-02T11:41:57.984Z,502.7692
2023-04-02T11:42:59.903Z,496.8462
2023-04-02T11:44:01.771Z,495.3077
2023-04-02T11:45:03.705Z,493.7692
2023-04-02T11:46:05.618Z,499.0769
2023-04-02T11:47:07.537Z,495.0000
2023-04-02T11:48:09.431Z,489.6154
2023-04-02T11:49:11.344Z,494.0769
2023-04-02T11:50:13.226Z,499.6923
2023-04-02T11:51:15.162Z,498.2308
2023-04-02T11:52:17.045Z,500.5385
2023-04-02T11:53:19.008Z,503.4615
2023-04-02T11:54:20.880Z,503.2308
2023-04-02T11:55:22.818Z,505.1538
2023-04-02T11:56:24.708Z,503.8462
2023-04-02T11:57:26.690Z,501.6154
2023-04-02T11:58:28.501Z,499.5385
2023-04-02T11:59:30.454Z,504.3077
2023-04-02T12:00:32.344Z,504.9231
2023-04-02T12:01:34.261Z,503.3846
2023-04-02T12:02:36.206Z,505.8462
2023-04-02T12:03:38.081Z,505.9231
2023-04-02T12:04:39.980Z,503.7692
2023-04-02T12:05:41.992Z,499.8462
2023-04-02T12:06:43.792Z,507.6154
2023-04-02T12:07:45.707Z,502.8462
2023-04-02T12:08:57.156Z,504.3077
2023-04-02T12:09:49.607Z,501.9231
2023-04-02T12:10:51.485Z,496.8462
2023-04-02T12:11:53.422Z,500.9231
2023-04-02T12:12:55.297Z,500.8462
2023-04-02T12:13:57.241Z,499.1538
2023-04-02T12:14:59.144Z,506.1538
2023-04-02T12:16:01.069Z,501.3846
2023-04-02T12:17:02.996Z,496.5385
2023-04-02T12:18:04.889Z,494.9231
2023-04-02T12:19:06.755Z,496.2308
2023-04-02T12:20:08.731Z,497.2308
2023-04-02T12:21:10.585Z,489.3846
2023-04-02T12:22:12.502Z,495.6923
2023-04-02T12:23:14.393Z,498.2308
2023-04-02T12:24:16.319Z,496.8462
2023-04-02T12:25:18.215Z,492.8462
2023-04-02T12:26:21.473Z,494.1538
2023-04-02T12:27:23.046Z,487.5385
2023-04-02T12:28:23.962Z,494.2308
2023-04-02T12:29:25.835Z,486.6923
2023-04-02T12:30:27.770Z,496.0000
2023-04-02T12:31:29.775Z,502.1538
2023-04-02T12:32:31.621Z,494.7692
2023-04-02T12:33:33.517Z,498.8462
2023-04-02T12:34:35.380Z,497.9231
2023-04-02T12:35:37.316Z,496.6154
2023-04-02T12:36:39.206Z,500.2308
2023-04-02T12:37:41.149Z,494.3077
2023-04-02T12:38:43.008Z,499.0000
2023-04-02T12:39:44.932Z,495.7692
2023-04-02T12:40:46.870Z,486.1538
2023-04-02T12:41:48.755Z,493.7692
2023-04-02T12:42:50.636Z,498.6154
2023-04-02T12:43:52.568Z,498.6154
2023-04-02T12:44:54.461Z,504.2308
2023-04-02T12:45:56.414Z,504.0769
2023-04-02T12:46:58.285Z,508.0000
2023-04-02T12:48:00.241Z,507.0000
2023-04-02T12:49:02.083Z,508.2308
2023-04-02T12:50:04.020Z,507.2308
2023-04-02T12:51:05.927Z,514.2308
2023-04-02T12:52:07.876Z,517.4615
2023-04-02T12:53:09.712Z,519.8461
2023-04-02T12:54:11.669Z,547.4615
2023-04-02T12:55:13.582Z,555.6154
2023-04-02T12:56:15.509Z,553.7692
2023-04-02T12:57:17.391Z,568.4615
2023-04-02T12:58:19.269Z,560.7692
2023-04-02T12:59:21.156Z,563.4615
2023-04-02T13:00:23.101Z,568.3846
2023-04-02T13:01:25.603Z,563.6154
2023-04-02T13:02:27.120Z,568.1539
2023-04-02T13:03:29.239Z,562.0000
2023-04-02T13:04:30.770Z,564.0769
2023-04-02T13:05:32.694Z,562.6923
2023-04-02T13:06:34.604Z,562.0000
2023-04-02T13:07:36.537Z,555.6154
2023-04-02T13:08:38.407Z,563.5385
2023-04-02T13:09:40.309Z,562.6154
2023-04-02T13:10:42.244Z,558.0000
2023-04-02T13:11:44.145Z,553.6154
2023-04-02T13:12:46.073Z,544.1539
2023-04-02T13:13:47.922Z,541.6154
2023-04-02T13:14:49.853Z,532.8461
2023-04-02T13:15:51.798Z,529.4615
2023-04-02T13:16:53.706Z,529.1539
2023-04-02T13:17:55.613Z,536.3846
2023-04-02T13:18:57.486Z,528.9231
2023-04-02T13:19:59.483Z,534.1539
2023-04-02T13:21:01.295Z,537.3846
2023-04-02T13:22:03.219Z,535.6154
2023-04-02T13:23:05.121Z,527.4615
2023-04-02T13:24:07.028Z,531.9231
2023-04-02T13:25:08.922Z,527.7692
2023-04-02T13:26:10.812Z,521.5385
2023-04-02T13:27:12.746Z,511.1538
2023-04-02T13:28:14.640Z,505.6923
2023-04-02T13:29:16.559Z,503.6154
2023-04-02T13:30:18.456Z,516.5385
2023-04-02T13:31:20.416Z,509.0000
2023-04-02T13:32:22.295Z,509.3077
2023-04-02T13:33:24.212Z,509.0769
2023-04-02T13:34:26.076Z,505.5385
2023-04-02T13:35:28.003Z,507.3077
2023-04-02T13:36:29.891Z,508.6923
2023-04-02T13:37:31.859Z,503.1538
2023-04-02T13:38:33.693Z,502.1538
2023-04-02T13:39:35.713Z,507.5385
2023-04-02T13:40:37.833Z,505.1538
2023-04-02T13:41:39.427Z,505.2308
2023-04-02T13:42:41.349Z,503.3846
2023-04-02T13:43:43.247Z,498.6154
2023-04-02T13:44:45.126Z,498.0000
2023-04-02T13:45:47.125Z,502.9231
2023-04-02T13:46:48.934Z,502.8462
2023-04-02T13:47:50.906Z,502.1538
2023-04-02T13:48:52.778Z,499.7692
2023-04-02T13:49:54.684Z,500.0000
2023-04-02T13:50:56.586Z,505.3846
2023-04-02T13:51:58.574Z,498.3077
2023-04-02T13:53:01.015Z,498.8462
2023-04-02T13:54:06.759Z,498.0000
2023-04-02T13:55:04.339Z,500.6923
2023-04-02T13:56:06.098Z,500.6923
2023-04-02T13:57:08.004Z,504.6923
2023-04-02T13:58:09.902Z,499.1538
2023-04-02T13:59:11.797Z,489.9231
2023-04-02T14:00:13.752Z,494.7692
2023-04-02T14:01:15.691Z,498.4615
2023-04-02T14:02:17.766Z,498.3846
2023-04-02T14:03:19.493Z,491.3077
2023-04-02T14:04:21.453Z,498.3846
2023-04-02T14:05:23.249Z,497.3077
2023-04-02T14:06:25.518Z,503.3846
2023-04-02T14:07:27.080Z,502.6923
2023-04-02T14:08:30.249Z,504.1538
2023-04-02T14:09:30.883Z,505.1538
2023-04-02T14:10:34.618Z,507.5385
2023-04-02T14:11:34.699Z,501.6923
2023-04-02T14:12:36.655Z,509.6923
2023-04-02T14:13:38.508Z,507.7692
2023-04-02T14:14:40.772Z,504.9231
2023-04-02T14:15:42.338Z,507.4615
2023-04-02T14:16:44.286Z,506.9231
2023-04-02T14:17:46.199Z,505.4615
2023-04-02T14:18:48.058Z,507.8462
2023-04-02T14:19:49.954Z,506.0769
2023-04-02T14:20:51.930Z,522.6154
2023-04-02T14:21:54.331Z,518.8461
2023-04-02T14:22:55.705Z,519.2308
2023-04-02T14:23:57.578Z,519.4615
2023-04-02T14:24:59.522Z,514.1539
2023-04-02T14:26:01.416Z,516.5385
2023-04-02T14:27:04.296Z,512.3846
2023-04-02T14:28:05.275Z,517.7692
2023-04-02T14:29:07.165Z,513.2308
2023-04-02T14:30:09.089Z,507.2308
2023-04-02T14:31:11.021Z,512.7692
2023-04-02T14:32:14.404Z,514.8461
2023-04-02T14:33:14.926Z,517.5385
2023-04-02T14:34:16.665Z,512.7692
2023-04-02T14:35:18.611Z,516.3077
2023-04-02T14:36:20.459Z,517.5385
2023-04-02T14:37:22.400Z,520.6923
2023-04-02T14:38:24.472Z,526.6154
2023-04-02T14:39:26.252Z,518.7692
2023-04-02T14:40:28.126Z,523.0000
2023-04-02T14:41:30.077Z,520.6154
2023-04-02T14:42:32.009Z,524.0769
2023-04-02T14:43:33.899Z,524.3077
2023-04-02T14:44:35.761Z,521.8461
2023-04-02T14:45:37.720Z,522.2308
2023-04-02T14:46:39.657Z,521.8461
2023-04-02T14:47:41.542Z,520.0769
2023-04-02T14:48:43.426Z,519.9231
2023-04-02T14:49:45.374Z,519.9231
2023-04-02T14:50:47.726Z,518.3846
2023-04-02T14:51:49.117Z,513.9231
2023-04-02T14:52:51.055Z,510.6154
2023-04-02T14:53:53.006Z,512.3846
2023-04-02T14:54:54.976Z,509.6923
2023-04-02T14:55:56.754Z,514.4615
2023-04-02T14:56:58.783Z,511.6923
2023-04-02T14:58:00.597Z,508.6154
2023-04-02T14:59:03.508Z,506.7692
2023-04-02T15:00:04.405Z,505.8462
2023-04-02T15:01:06.317Z,514.3846
2023-04-02T15:02:08.248Z,510.0769
2023-04-02T15:03:10.191Z,509.4615
2023-04-02T15:04:12.015Z,510.6154
2023-04-02T15:05:13.945Z,504.6154
2023-04-02T15:06:15.880Z,514.3846
2023-04-02T15:07:17.778Z,515.1539
2023-04-02T15:08:19.675Z,511.7692
2023-04-02T15:09:21.591Z,512.6154
2023-04-02T15:10:23.476Z,513.8461
2023-04-02T15:11:27.576Z,509.8462
2023-04-02T15:12:27.268Z,518.0000
2023-04-02T15:13:29.188Z,509.4615
2023-04-02T15:14:31.095Z,506.3077
2023-04-02T15:15:39.278Z,506.3077
2023-04-02T15:16:35.772Z,503.3846
2023-04-02T15:17:36.850Z,506.0000
2023-04-02T15:18:39.743Z,499.6923
2023-04-02T15:19:40.679Z,496.5385
2023-04-02T15:20:42.696Z,506.3077
2023-04-02T15:21:55.621Z,513.6154
2023-04-02T15:22:46.379Z,515.3846
2023-04-02T15:23:48.447Z,506.6923
2023-04-02T15:24:50.195Z,512.6923
2023-04-02T15:25:52.068Z,509.2308
2023-04-02T15:26:53.995Z,506.4615
2023-04-02T15:27:55.856Z,504.4615
2023-04-02T15:28:57.827Z,508.6923
2023-04-02T15:29:59.684Z,508.0769
2023-04-02T15:31:01.612Z,515.0000
2023-04-02T15:32:03.508Z,509.6154
2023-04-02T15:33:05.455Z,506.0769
2023-04-02T15:34:07.303Z,504.4615
2023-04-02T15:35:09.227Z,501.2308
2023-04-02T15:36:11.168Z,507.9231
2023-04-02T15:37:13.100Z,509.3077
2023-04-02T15:38:14.940Z,509.5385
2023-04-02T15:39:16.872Z,508.2308
2023-04-02T15:40:18.740Z,511.3846
2023-04-02T15:41:22.975Z,508.0000
2023-04-02T15:42:22.583Z,508.0000
2023-04-02T15:43:24.492Z,507.3846
2023-04-02T15:44:26.376Z,501.5385
2023-04-02T15:45:29.582Z,505.8462
2023-04-02T15:46:30.299Z,507.2308
2023-04-02T15:47:32.622Z,507.2308
2023-04-02T15:48:34.162Z,502.4615
2023-04-02T15:49:35.962Z,499.0769
2023-04-02T15:50:38.382Z,498.0769
2023-04-02T15:51:39.734Z,492.3077
2023-04-02T15:52:41.641Z,489.9231
2023-04-02T15:53:43.566Z,494.5385
2023-04-02T15:54:45.473Z,495.6923
2023-04-02T15:55:47.386Z,504.0000
2023-04-02T15:56:49.355Z,495.2308
2023-04-02T15:57:51.183Z,497.1538
2023-04-02T15:58:53.088Z,494.7692
2023-04-02T15:59:55.077Z,497.7692
2023-04-02T16:00:56.933Z,498.1538
2023-04-02T16:01:58.860Z,493.7692
2023-04-02T16:03:00.756Z,501.8462
2023-04-02T16:04:02.720Z,497.7692
2023-04-02T16:05:04.540Z,491.1538
2023-04-02T16:06:07.268Z,495.4615
2023-04-02T16:07:08.474Z,496.3846
2023-04-02T16:08:10.431Z,491.5385
2023-04-02T16:09:12.846Z,489.9231
2023-04-02T16:10:14.190Z,491.1538
2023-04-02T16:11:16.158Z,488.4615
2023-04-02T16:12:17.986Z,484.6154
2023-04-02T16:13:19.781Z,480.2308
2023-04-02T16:14:21.767Z,486.1538
2023-04-02T16:15:24.035Z,481.3846
2023-04-02T16:16:25.814Z,480.2308
2023-04-02T16:17:27.652Z,469.5385
2023-04-02T16:18:29.385Z,475.9231
2023-04-02T16:19:31.289Z,470.9231
2023-04-02T16:20:33.453Z,469.0769
2023-04-02T16:21:35.218Z,474.7692
2023-04-02T16:22:38.027Z,476.5385
2023-04-02T16:23:39.081Z,468.0769
2023-04-02T16:24:40.827Z,472.2308
2023-04-02T16:25:42.826Z,478.5385
2023-04-02T16:26:44.651Z,482.4615
2023-04-02T16:27:46.668Z,476.5385
2023-04-02T16:28:48.478Z,472.2308
2023-04-02T16:29:54.201Z,471.4615
2023-04-02T16:30:52.331Z,471.1538
2023-04-02T16:31:54.196Z,468.2308
2023-04-02T16:32:56.227Z,462.9231
2023-04-02T16:33:58.714Z,464.2308
2023-04-02T16:35:15.232Z,467.2308
2023-04-02T16:36:02.894Z,460.0769
2023-04-02T16:37:03.724Z,462.0000
2023-04-02T16:38:05.597Z,465.6923
2023-04-02T16:39:07.536Z,465.0769
2023-04-02T16:40:09.447Z,468.9231
2023-04-02T16:41:11.397Z,472.2308
2023-04-02T16:42:13.227Z,470.6154
2023-04-02T16:43:15.161Z,472.5385
2023-04-02T16:44:17.040Z,467.7692
2023-04-02T16:45:19.356Z,469.0769
2023-04-02T16:46:31.682Z,467.5385
2023-04-02T16:47:22.830Z,467.0769
2023-04-02T16:48:24.685Z,474.0769
2023-04-02T16:49:26.617Z,471.6923
2023-04-02T16:50:28.479Z,469.7692
2023-04-02T16:51:30.403Z,465.8462
2023-04-02T16:52:32.292Z,466.6923
2023-04-02T16:53:34.228Z,467.3077
2023-04-02T16:54:36.121Z,474.3077
2023-04-02T16:55:38.014Z,478.3077
2023-04-02T16:56:39.930Z,474.6923
2023-04-02T16:57:41.843Z,483.0769
2023-04-02T16:58:43.762Z,481.0000
2023-04-02T16:59:45.681Z,478.0769
2023-04-02T17:00:47.567Z,473.8462
2023-04-02T17:01:49.490Z,480.1538
2023-04-02T17:02:51.410Z,472.3077
2023-04-02T17:03:53.557Z,474.2308
2023-04-02T17:04:55.171Z,478.9231
2023-04-02T17:05:57.112Z,474.7692
2023-04-02T17:06:59.278Z,479.9231
2023-04-02T17:08:00.900Z,478.6923
2023-04-02T17:09:02.801Z,473.5385
2023-04-02T17:10:04.693Z,478.4615
2023-04-02T17:11:06.727Z,478.1538
2023-04-02T17:12:08.595Z,481.9231
2023-04-02T17:13:10.456Z,479.1538
2023-04-02T17:14:12.395Z,469.3846
2023-04-02T17:15:20.951Z,480.2308
2023-04-02T17:16:16.154Z,487.3846
2023-04-02T17:17:18.057Z,485.0000
2023-04-02T17:18:20.162Z,484.0000
2023-04-02T17:19:21.880Z,489.1538
2023-04-02T17:20:23.749Z,483.8462
2023-04-02T17:21:25.680Z,488.1538
2023-04-02T17:22:27.571Z,487.0769
2023-04-02T17:23:29.488Z,487.8462
2023-04-02T17:24:31.374Z,486.1538
2023-04-02T17:25:33.301Z,490.1538
2023-04-02T17:26:35.190Z,485.0769
2023-04-02T17:27:37.123Z,483.6154
2023-04-02T17:28:39.011Z,483.4615
2023-04-02T17:29:40.970Z,487.0000
2023-04-02T17:30:42.809Z,502.7692
2023-04-02T17:31:44.770Z,481.9231
2023-04-02T17:32:46.721Z,482.4615
2023-04-02T17:33:48.557Z,488.8462
2023-04-02T17:34:50.436Z,488.9231
2023-04-02T17:35:52.392Z,480.9231
2023-04-02T17:36:55.247Z,483.1538
2023-04-02T17:37:56.195Z,490.0769
2023-04-02T17:38:58.191Z,487.9231
2023-04-02T17:39:59.975Z,487.5385
2023-04-02T17:41:01.856Z,494.6154
2023-04-02T17:42:04.035Z,497.6923
2023-04-02T17:43:05.723Z,498.0000
2023-04-02T17:44:07.790Z,497.2308
2023-04-02T17:45:09.497Z,488.6923
2023-04-02T17:46:11.551Z,490.0000
2023-04-02T17:47:14.385Z,499.3077
2023-04-02T17:48:16.370Z,494.4615
2023-04-02T17:49:17.317Z,485.4615
2023-04-02T17:50:19.078Z,489.6923
2023-04-02T17:51:20.982Z,495.3846
2023-04-02T17:52:22.915Z,497.5385
2023-04-02T17:53:24.760Z,499.4615
2023-04-02T17:54:26.898Z,496.8462
2023-04-02T17:55:28.561Z,501.4615
2023-04-02T17:56:30.988Z,506.1538
2023-04-02T17:57:32.861Z,507.6154
2023-04-02T17:58:34.299Z,507.8462
2023-04-02T17:59:36.205Z,501.1538
2023-04-02T18:00:38.821Z,505.2308
2023-04-02T18:01:40.098Z,509.6154
2023-04-02T18:02:42.041Z,510.4615
2023-04-02T18:03:43.867Z,510.2308
2023-04-02T18:04:45.894Z,520.6923
2023-04-02T18:05:47.757Z,517.0000
2023-04-02T18:06:49.550Z,520.7692
2023-04-02T18:07:51.599Z,519.3846
2023-04-02T18:08:53.343Z,513.0769
2023-04-02T18:09:55.227Z,520.0769
2023-04-02T18:10:57.206Z,518.6923
2023-04-02T18:12:00.534Z,525.9231
2023-04-02T18:23:41.598Z,0.0000
2023-04-02T18:24:43.518Z,0.0000
